Terminal Aerodrome Forecast
Issued by NWS

Home | Current Version | Previous Version | Text Only | Print | Product List | Glossary On
Versions: 1 2 3 4 5 6 7 8 9 10 11 12 13 14
000
FTUS46 KLOX 011735
TAFSBA
TAF
KSBA 011735Z 0118/0218 26007KT P6SM FEW004 OVC150
     FM020400 VRB03KT P6SM SCT004 BKN150
     FM021700 16006KT P6SM SCT004 SCT150=

USA.gov is the U.S. government's official web portal to all federal, state and local government web resources and services.